createdAt,value
2022-10-17T00:02:05.619Z,5.10
2022-10-17T00:04:55.345Z,6.00
2022-10-17T00:07:45.450Z,5.70
2022-10-17T00:10:35.169Z,6.10
2022-10-17T00:13:25.454Z,5.60
2022-10-17T00:16:16.433Z,6.60
2022-10-17T00:19:07.394Z,5.60
2022-10-17T00:21:57.405Z,5.00
2022-10-17T00:24:47.103Z,5.70
2022-10-17T00:27:39.670Z,5.80
2022-10-17T00:30:29.972Z,5.70
2022-10-17T00:33:20.388Z,6.20
2022-10-17T00:36:12.840Z,5.50
2022-10-17T00:39:02.835Z,5.80
2022-10-17T00:41:53.267Z,5.60
2022-10-17T00:45:08.495Z,5.00
2022-10-17T00:48:03.968Z,4.70
2022-10-17T00:50:55.008Z,5.60
2022-10-17T00:53:45.760Z,6.50
2022-10-17T00:56:36.084Z,4.90
2022-10-17T00:59:27.337Z,5.50
2022-10-17T01:02:19.597Z,5.50
2022-10-17T01:05:11.908Z,4.80
2022-10-17T01:08:02.365Z,7.90
2022-10-17T01:11:14.621Z,5.30
2022-10-17T01:14:13.593Z,5.10
2022-10-17T01:17:10.564Z,7.40
2022-10-17T01:20:31.229Z,6.40
2022-10-17T01:23:36.998Z,6.00
2022-10-17T01:26:37.743Z,6.40
2022-10-17T01:29:45.212Z,5.30
2022-10-17T01:32:40.439Z,6.50
2022-10-17T01:35:38.655Z,6.60
2022-10-17T01:38:35.650Z,5.60
2022-10-17T01:41:36.933Z,6.40
2022-10-17T01:44:35.344Z,5.80
2022-10-17T01:47:29.174Z,5.90
2022-10-17T01:50:25.279Z,4.80
2022-10-17T01:53:21.375Z,6.20
2022-10-17T01:56:14.742Z,5.80
2022-10-17T01:59:10.578Z,7.20
2022-10-17T02:02:03.354Z,6.40
2022-10-17T02:04:56.564Z,7.70
2022-10-17T02:07:46.188Z,5.30
2022-10-17T02:10:42.421Z,6.20
2022-10-17T02:13:49.805Z,6.10
2022-10-17T02:16:44.196Z,5.70
2022-10-17T02:19:48.406Z,5.80
2022-10-17T02:22:45.254Z,5.80
2022-10-17T02:25:45.694Z,6.00
2022-10-17T02:28:44.596Z,7.40
2022-10-17T02:31:40.179Z,5.90
2022-10-17T02:34:35.224Z,9.30
2022-10-17T02:37:29.927Z,5.70
2022-10-17T02:40:23.223Z,5.10
2022-10-17T02:43:15.792Z,6.80
2022-10-17T02:46:08.210Z,6.40
2022-10-17T02:49:04.101Z,6.30
2022-10-17T02:52:01.736Z,6.70
2022-10-17T02:54:59.029Z,6.00
2022-10-17T02:57:52.593Z,7.20
2022-10-17T03:00:44.195Z,6.00
2022-10-17T03:03:35.043Z,5.90
2022-10-17T03:06:25.301Z,6.00
2022-10-17T03:09:16.132Z,5.90
2022-10-17T03:12:07.161Z,6.80
2022-10-17T03:14:57.434Z,5.90
2022-10-17T03:17:47.053Z,6.70
2022-10-17T03:20:37.121Z,6.30
2022-10-17T03:23:27.219Z,6.40
2022-10-17T03:26:17.091Z,6.60
2022-10-17T03:29:07.532Z,7.20
2022-10-17T03:31:57.811Z,6.30
2022-10-17T03:34:48.489Z,5.40
2022-10-17T03:37:38.955Z,6.20
2022-10-17T03:40:29.437Z,5.70
2022-10-17T03:43:19.374Z,8.80
2022-10-17T03:46:10.782Z,6.40
2022-10-17T03:49:01.078Z,8.30
2022-10-17T03:51:51.682Z,7.40
2022-10-17T03:54:42.486Z,7.40
2022-10-17T03:57:32.841Z,7.90
2022-10-17T04:00:23.267Z,9.80
2022-10-17T04:03:17.985Z,8.50
2022-10-17T04:06:09.393Z,9.40
2022-10-17T04:08:59.219Z,10.10
2022-10-17T04:12:05.422Z,10.00
2022-10-17T04:14:56.439Z,9.20
2022-10-17T04:17:48.513Z,10.20
2022-10-17T04:20:39.106Z,9.50
2022-10-17T04:23:29.363Z,8.20
2022-10-17T04:26:21.679Z,6.60
2022-10-17T04:29:12.404Z,6.80
2022-10-17T04:32:02.901Z,6.40
2022-10-17T04:34:57.557Z,6.50
2022-10-17T04:37:47.274Z,7.00
2022-10-17T04:40:40.918Z,7.40
2022-10-17T04:43:33.298Z,6.90
2022-10-17T04:46:23.478Z,7.20
2022-10-17T04:49:14.130Z,8.00
2022-10-17T04:52:06.364Z,7.90
2022-10-17T04:55:07.665Z,7.80
2022-10-17T04:57:59.070Z,6.70
2022-10-17T05:00:49.667Z,6.20
2022-10-17T05:03:47.190Z,7.60
2022-10-17T05:06:38.581Z,6.70
2022-10-17T05:09:47.759Z,8.10
2022-10-17T05:12:38.655Z,7.20
2022-10-17T05:15:28.481Z,6.20
2022-10-17T05:18:19.112Z,6.70
2022-10-17T05:21:10.722Z,5.90
2022-10-17T05:24:02.155Z,6.60
2022-10-17T05:26:54.352Z,8.30
2022-10-17T05:29:44.173Z,6.60
2022-10-17T05:32:48.148Z,6.10
2022-10-17T05:35:38.963Z,6.30
2022-10-17T05:38:32.131Z,6.20
2022-10-17T05:41:23.268Z,7.50
2022-10-17T05:44:13.534Z,10.00
2022-10-17T05:47:05.987Z,8.10
2022-10-17T05:49:55.938Z,6.50
2022-10-17T05:52:57.463Z,6.20
2022-10-17T05:55:48.095Z,7.60
2022-10-17T05:59:00.771Z,7.00
2022-10-17T06:02:10.400Z,7.50
2022-10-17T06:05:00.543Z,6.70
2022-10-17T06:07:52.625Z,7.00
2022-10-17T06:10:43.689Z,6.20
2022-10-17T06:13:33.472Z,8.20
2022-10-17T06:16:26.010Z,6.90
2022-10-17T06:19:16.304Z,7.10
2022-10-17T06:22:07.055Z,7.50
2022-10-17T06:24:57.809Z,8.20
2022-10-17T06:27:47.888Z,7.20
2022-10-17T06:30:39.165Z,6.90
2022-10-17T06:33:29.433Z,6.90
2022-10-17T06:36:20.253Z,7.50
2022-10-17T06:39:12.689Z,6.70
2022-10-17T06:42:17.340Z,6.70
2022-10-17T06:45:12.892Z,7.80
2022-10-17T06:48:15.746Z,6.60
2022-10-17T06:51:10.003Z,8.80
2022-10-17T06:54:09.976Z,7.80
2022-10-17T06:57:31.196Z,9.00
2022-10-17T07:00:49.764Z,8.20
2022-10-17T07:03:42.226Z,9.40
2022-10-17T07:06:32.594Z,10.10
2022-10-17T07:09:29.520Z,9.30
2022-10-17T07:12:21.080Z,13.30
2022-10-17T07:15:14.282Z,11.80
2022-10-17T07:18:04.439Z,13.60
2022-10-17T07:20:57.548Z,19.50
2022-10-17T07:23:49.371Z,23.50
2022-10-17T07:26:39.115Z,26.30
2022-10-17T07:29:29.521Z,44.50
2022-10-17T07:32:34.879Z,50.50
2022-10-17T07:35:25.507Z,38.90
2022-10-17T07:38:16.086Z,41.10
2022-10-17T07:41:08.455Z,34.60
2022-10-17T07:43:58.991Z,27.00
2022-10-17T07:46:54.783Z,26.10
2022-10-17T07:49:45.381Z,21.40
2022-10-17T07:52:35.046Z,19.80
2022-10-17T07:55:25.237Z,15.20
2022-10-17T07:58:15.911Z,14.90
2022-10-17T08:01:10.668Z,13.10
2022-10-17T08:04:03.807Z,14.80
2022-10-17T08:07:05.470Z,13.70
2022-10-17T08:10:02.129Z,15.50
2022-10-17T08:12:52.016Z,12.70
2022-10-17T08:15:42.203Z,12.60
2022-10-17T08:18:32.539Z,15.40
2022-10-17T08:21:23.313Z,11.90
2022-10-17T08:24:13.564Z,11.40
2022-10-17T08:27:04.065Z,13.50
2022-10-17T08:29:54.434Z,13.70
2022-10-17T08:32:44.390Z,12.30
2022-10-17T08:35:35.228Z,12.50
2022-10-17T08:38:27.794Z,15.60
2022-10-17T08:41:43.373Z,13.60
2022-10-17T08:44:47.677Z,17.10
2022-10-17T08:47:42.086Z,12.00
2022-10-17T08:50:42.658Z,10.90
2022-10-17T08:53:37.944Z,13.50
2022-10-17T08:56:47.584Z,12.40
2022-10-17T08:59:39.231Z,13.00
2022-10-17T09:02:43.311Z,12.60
2022-10-17T09:05:45.036Z,13.30
2022-10-17T09:08:44.307Z,14.10
2022-10-17T09:11:50.209Z,16.90
2022-10-17T09:15:05.667Z,16.00
2022-10-17T09:17:59.867Z,17.20
2022-10-17T09:20:53.107Z,18.60
2022-10-17T09:23:47.131Z,19.80
2022-10-17T09:26:36.929Z,17.80
2022-10-17T09:29:34.088Z,20.60
2022-10-17T09:32:28.590Z,19.50
2022-10-17T09:35:19.629Z,21.60
2022-10-17T09:38:12.829Z,27.40
2022-10-17T09:41:15.738Z,27.00
2022-10-17T09:44:21.894Z,31.70
2022-10-17T09:47:29.159Z,32.70
2022-10-17T09:50:26.510Z,27.90
2022-10-17T09:53:24.955Z,26.90
2022-10-17T09:56:18.081Z,26.80
2022-10-17T09:59:12.893Z,31.30
2022-10-17T10:02:18.141Z,30.10
2022-10-17T10:05:17.304Z,24.60
2022-10-17T10:08:14.525Z,21.10
2022-10-17T10:11:11.833Z,24.50
2022-10-17T10:14:20.173Z,26.70
2022-10-17T10:17:30.152Z,26.00
2022-10-17T10:20:33.756Z,26.00
2022-10-17T10:23:24.611Z,24.50
2022-10-17T10:26:30.077Z,25.50
2022-10-17T10:29:31.271Z,24.50
2022-10-17T10:32:24.911Z,24.30
2022-10-17T10:35:23.240Z,22.70
2022-10-17T10:38:17.886Z,33.00
2022-10-17T10:41:10.398Z,22.60
2022-10-17T10:44:02.128Z,22.30
2022-10-17T10:47:07.014Z,23.60
2022-10-17T10:50:17.362Z,24.60
2022-10-17T10:53:26.297Z,27.10
2022-10-17T10:56:21.743Z,21.90
2022-10-17T10:59:20.415Z,18.20
2022-10-17T11:02:17.295Z,15.40
2022-10-17T11:05:14.820Z,16.20
2022-10-17T11:08:12.441Z,15.80
2022-10-17T11:11:18.036Z,13.70
2022-10-17T11:14:14.722Z,16.80
2022-10-17T11:17:13.281Z,14.70
2022-10-17T11:20:12.599Z,14.80
2022-10-17T11:23:11.452Z,13.20
2022-10-17T11:26:05.766Z,16.60
2022-10-17T11:28:57.669Z,12.70
2022-10-17T11:31:53.768Z,12.30
2022-10-17T11:34:47.628Z,12.90
2022-10-17T11:37:42.917Z,12.60
2022-10-17T11:40:37.456Z,13.70
2022-10-17T11:43:33.802Z,12.20
2022-10-17T11:46:26.954Z,13.10
2022-10-17T11:49:20.848Z,11.60
2022-10-17T11:52:51.230Z,12.90
2022-10-17T11:55:38.347Z,11.70
2022-10-17T11:58:36.707Z,8.50
2022-10-17T12:01:33.467Z,8.90
2022-10-17T12:04:39.715Z,11.10
2022-10-17T12:07:37.939Z,10.90
2022-10-17T12:10:44.118Z,9.40
2022-10-17T12:13:53.358Z,10.80
2022-10-17T12:16:47.463Z,7.20
2022-10-17T12:19:39.096Z,9.70
2022-10-17T12:22:29.520Z,11.20
2022-10-17T12:25:23.879Z,11.60
2022-10-17T12:28:20.272Z,11.90
2022-10-17T12:31:23.343Z,10.00
2022-10-17T12:34:20.469Z,8.80
2022-10-17T12:37:15.236Z,8.00
2022-10-17T12:40:05.970Z,7.80
2022-10-17T12:42:56.107Z,8.00
2022-10-17T12:45:52.805Z,8.70
2022-10-17T12:49:23.985Z,11.30
2022-10-17T12:52:23.492Z,9.20
2022-10-17T12:55:18.183Z,10.90
2022-10-17T12:58:15.504Z,8.80
2022-10-17T13:01:23.865Z,7.90
2022-10-17T13:04:15.367Z,8.20
2022-10-17T13:07:05.932Z,8.70
2022-10-17T13:09:56.418Z,8.60
2022-10-17T13:12:46.171Z,12.00
2022-10-17T13:15:37.488Z,10.80
2022-10-17T13:18:29.646Z,8.90
2022-10-17T13:21:19.656Z,9.70
2022-10-17T13:27:23.123Z,8.20
2022-10-17T13:30:31.115Z,10.80
2022-10-17T13:33:38.034Z,11.10
2022-10-17T13:36:28.821Z,8.00
2022-10-17T13:39:32.676Z,9.40
2022-10-17T13:42:38.309Z,7.20
2022-10-17T13:45:32.566Z,8.50
2022-10-17T13:48:26.324Z,9.30
2022-10-17T13:51:16.685Z,9.40
2022-10-17T13:54:21.173Z,9.40
2022-10-17T13:57:22.104Z,9.10
2022-10-17T14:00:21.709Z,9.80
2022-10-17T14:03:12.404Z,9.40
2022-10-17T14:09:01.624Z,10.50
2022-10-17T14:12:02.433Z,9.00
2022-10-17T14:15:10.980Z,8.30
2022-10-17T14:18:07.811Z,9.70
2022-10-17T14:21:34.036Z,10.30
2022-10-17T14:24:31.477Z,8.40
2022-10-17T14:27:34.655Z,9.40
2022-10-17T14:30:56.691Z,10.00
2022-10-17T14:33:50.861Z,14.80
2022-10-17T14:36:43.064Z,8.90
2022-10-17T14:39:33.643Z,9.20
2022-10-17T14:42:25.073Z,9.40
2022-10-17T14:45:23.803Z,10.70
2022-10-17T14:48:17.780Z,10.50
2022-10-17T14:51:15.036Z,9.20
2022-10-17T14:54:19.697Z,10.00
2022-10-17T14:57:19.008Z,10.70
2022-10-17T15:00:14.517Z,8.90
2022-10-17T15:03:04.679Z,9.30
2022-10-17T15:05:56.883Z,9.60
2022-10-17T15:08:46.922Z,8.50
2022-10-17T15:11:37.036Z,7.80
2022-10-17T15:14:27.158Z,9.00
2022-10-17T15:17:20.904Z,12.40
2022-10-17T15:20:17.214Z,10.00
2022-10-17T15:23:07.763Z,10.40
2022-10-17T15:25:58.142Z,10.10
2022-10-17T15:28:49.722Z,9.30
2022-10-17T15:31:39.804Z,10.50
2022-10-17T15:34:29.880Z,8.80
2022-10-17T15:37:23.543Z,8.70
2022-10-17T15:40:17.422Z,9.40
2022-10-17T15:43:07.549Z,9.80
2022-10-17T15:45:58.353Z,7.10
2022-10-17T15:48:48.821Z,7.60
2022-10-17T15:51:38.616Z,6.70
2022-10-17T15:54:28.815Z,9.80
2022-10-17T15:57:20.857Z,7.50
2022-10-17T16:00:17.768Z,9.90
2022-10-17T16:03:07.813Z,9.20
2022-10-17T16:05:58.512Z,7.90
2022-10-17T16:08:49.311Z,10.50
2022-10-17T16:11:41.423Z,8.10
2022-10-17T16:14:32.616Z,7.50
2022-10-17T16:17:22.406Z,10.60
2022-10-17T16:20:14.056Z,9.40
2022-10-17T16:23:04.944Z,9.00
2022-10-17T16:25:55.188Z,10.10
2022-10-17T16:28:46.335Z,9.80
2022-10-17T16:31:41.036Z,10.00
2022-10-17T16:34:32.578Z,12.00
2022-10-17T16:37:23.778Z,9.40
2022-10-17T16:40:15.487Z,13.70
2022-10-17T16:43:05.989Z,10.30
2022-10-17T16:45:56.449Z,10.90
2022-10-17T16:48:47.896Z,10.50
2022-10-17T16:51:38.662Z,10.80
2022-10-17T16:54:29.833Z,10.30
2022-10-17T16:57:20.535Z,10.00
2022-10-17T17:00:14.400Z,9.90
2022-10-17T17:03:04.791Z,9.20
2022-10-17T17:05:55.288Z,9.30
2022-10-17T17:08:46.078Z,11.50
2022-10-17T17:11:39.098Z,15.50
2022-10-17T17:14:29.745Z,11.10
2022-10-17T17:17:37.076Z,11.00
2022-10-17T17:20:31.787Z,10.70
2022-10-17T17:23:21.624Z,12.00
2022-10-17T17:26:13.724Z,8.40
2022-10-17T17:29:03.777Z,12.20
2022-10-17T17:31:53.743Z,12.40
2022-10-17T17:34:43.708Z,10.40
2022-10-17T17:37:33.585Z,10.60
2022-10-17T17:40:23.719Z,11.10
2022-10-17T17:43:14.047Z,11.90
2022-10-17T17:46:05.164Z,11.90
2022-10-17T17:48:56.161Z,11.90
2022-10-17T17:51:46.862Z,13.70
2022-10-17T17:54:40.058Z,13.80
2022-10-17T17:57:31.793Z,13.00
2022-10-17T18:00:21.887Z,15.00
2022-10-17T18:03:12.846Z,13.40
2022-10-17T18:06:02.630Z,14.40
2022-10-17T18:08:54.575Z,13.70
2022-10-17T18:11:44.279Z,14.30
2022-10-17T18:14:33.868Z,12.00
2022-10-17T18:17:23.715Z,12.10
2022-10-17T18:20:14.659Z,13.30
2022-10-17T18:23:04.613Z,12.60
2022-10-17T18:26:00.845Z,11.70
2022-10-17T18:28:51.028Z,13.10
2022-10-17T18:31:40.882Z,12.20
2022-10-17T18:34:31.007Z,12.20
2022-10-17T18:37:21.800Z,12.00
2022-10-17T18:40:13.911Z,16.40
2022-10-17T18:43:04.195Z,12.20
2022-10-17T18:45:57.445Z,11.90
2022-10-17T18:48:48.752Z,12.50
2022-10-17T18:51:39.452Z,11.20
2022-10-17T18:54:32.183Z,10.50
2022-10-17T18:57:23.962Z,11.30
2022-10-17T19:00:18.538Z,10.00
2022-10-17T19:03:09.376Z,11.70
2022-10-17T19:06:01.289Z,12.70
2022-10-17T19:08:51.701Z,11.70
2022-10-17T19:11:43.399Z,10.90
2022-10-17T19:14:34.237Z,11.80
2022-10-17T19:17:24.759Z,10.70
2022-10-17T19:20:15.299Z,11.90
2022-10-17T19:23:05.250Z,12.20
2022-10-17T19:25:58.304Z,12.20
2022-10-17T19:28:52.547Z,11.00
2022-10-17T19:31:43.049Z,11.30
2022-10-17T19:34:33.670Z,10.70
2022-10-17T19:37:24.068Z,12.00
2022-10-17T19:40:16.264Z,10.80
2022-10-17T19:43:06.717Z,10.80
2022-10-17T19:46:02.315Z,10.50
2022-10-17T19:48:53.158Z,14.40
2022-10-17T19:51:43.859Z,12.80
2022-10-17T19:54:34.073Z,11.40
2022-10-17T19:57:25.735Z,10.70
2022-10-17T20:00:18.041Z,12.80
2022-10-17T20:03:08.326Z,12.10
2022-10-17T20:05:58.645Z,10.70
2022-10-17T20:08:49.185Z,11.90
2022-10-17T20:11:39.424Z,12.30
2022-10-17T20:14:29.924Z,9.50
2022-10-17T20:17:19.845Z,11.20
2022-10-17T20:20:11.638Z,10.50
2022-10-17T20:23:01.427Z,12.90
2022-10-17T20:26:06.649Z,10.70
2022-10-17T20:29:12.990Z,10.90
2022-10-17T20:32:02.818Z,10.90
2022-10-17T20:34:52.582Z,10.40
2022-10-17T20:37:42.958Z,10.60
2022-10-17T20:40:35.375Z,10.80
2022-10-17T20:43:26.146Z,11.10
2022-10-17T20:46:35.176Z,11.00
2022-10-17T20:49:26.752Z,11.60
2022-10-17T20:52:17.161Z,11.40
2022-10-17T20:55:09.070Z,11.10
2022-10-17T20:58:00.007Z,11.60
2022-10-17T21:00:49.854Z,9.80
2022-10-17T21:03:43.866Z,11.40
2022-10-17T21:06:36.941Z,10.00
2022-10-17T21:09:27.912Z,10.20
2022-10-17T21:12:26.099Z,11.50
2022-10-17T21:15:21.422Z,10.90
2022-10-17T21:18:10.943Z,11.60
2022-10-17T21:21:10.036Z,11.70
2022-10-17T21:24:01.552Z,9.50
2022-10-17T21:26:55.728Z,10.40
2022-10-17T21:29:45.730Z,10.70
2022-10-17T21:32:51.029Z,11.50
2022-10-17T21:35:41.743Z,11.50
2022-10-17T21:38:31.309Z,11.30
2022-10-17T21:41:22.761Z,10.40
2022-10-17T21:44:16.475Z,10.50
2022-10-17T21:47:06.183Z,12.80
2022-10-17T21:49:56.157Z,10.20
2022-10-17T21:52:45.983Z,9.80
2022-10-17T21:55:38.829Z,12.70
2022-10-17T21:58:29.781Z,9.70
2022-10-17T22:01:22.621Z,10.30
2022-10-17T22:04:14.640Z,9.40
2022-10-17T22:07:04.165Z,9.60
2022-10-17T22:09:54.018Z,9.10
2022-10-17T22:12:43.738Z,9.80
2022-10-17T22:15:33.497Z,11.00
2022-10-17T22:18:23.353Z,10.90
2022-10-17T22:21:15.805Z,8.80
2022-10-17T22:24:07.626Z,11.10
2022-10-17T22:26:57.204Z,8.80
2022-10-17T22:29:46.803Z,11.40
2022-10-17T22:32:36.377Z,10.20
2022-10-17T22:35:26.999Z,11.20
2022-10-17T22:38:18.014Z,9.60
2022-10-17T22:41:09.941Z,10.00
2022-10-17T22:43:59.890Z,9.80
2022-10-17T22:46:51.305Z,10.10
2022-10-17T22:49:41.800Z,11.00
2022-10-17T22:52:32.404Z,11.60
2022-10-17T22:55:23.489Z,9.20
2022-10-17T22:58:13.104Z,8.70
2022-10-17T23:01:03.527Z,11.20
2022-10-17T23:03:54.942Z,9.40
2022-10-17T23:06:44.663Z,9.00
2022-10-17T23:09:34.442Z,10.80
2022-10-17T23:12:24.452Z,9.30
2022-10-17T23:15:14.690Z,9.00
2022-10-17T23:18:05.462Z,9.10
2022-10-17T23:20:55.839Z,8.80
2022-10-17T23:23:45.873Z,10.80
2022-10-17T23:26:35.593Z,9.80
2022-10-17T23:29:25.972Z,9.70
2022-10-17T23:32:15.521Z,11.10
2022-10-17T23:35:06.248Z,8.40
2022-10-17T23:37:55.858Z,8.90
2022-10-17T23:40:45.615Z,9.50
2022-10-17T23:43:36.188Z,9.60
2022-10-17T23:46:25.745Z,8.90
2022-10-17T23:49:16.031Z,9.90
2022-10-17T23:52:06.637Z,9.70
2022-10-17T23:54:56.576Z,9.50
2022-10-17T23:57:46.277Z,10.90
